createdAt,value
2019-03-06T00:01:44.406Z,3.90
2019-03-06T00:04:13.740Z,4.00
2019-03-06T00:06:43.104Z,3.90
2019-03-06T00:09:12.462Z,3.90
2019-03-06T00:11:41.854Z,3.90
2019-03-06T00:14:13.196Z,3.90
2019-03-06T00:16:42.193Z,3.90
2019-03-06T00:19:13.521Z,3.90
2019-03-06T00:21:44.028Z,3.90
2019-03-06T00:24:13.357Z,3.90
2019-03-06T00:26:42.678Z,3.90
2019-03-06T00:29:12.138Z,3.90
2019-03-06T00:31:41.574Z,3.90
2019-03-06T00:34:10.974Z,3.90
2019-03-06T00:36:40.379Z,3.90
2019-03-06T00:39:09.998Z,3.80
2019-03-06T00:41:47.698Z,3.80
2019-03-06T00:44:17.006Z,3.80
2019-03-06T00:46:46.382Z,3.80
2019-03-06T00:49:15.682Z,3.80
2019-03-06T00:51:45.027Z,3.80
2019-03-06T00:54:14.315Z,3.80
2019-03-06T00:56:43.653Z,3.70
2019-03-06T00:59:13.009Z,3.70
2019-03-06T01:01:43.587Z,3.70
2019-03-06T01:04:12.884Z,3.70
2019-03-06T01:07:51.403Z,3.60
2019-03-06T01:10:20.873Z,3.60
2019-03-06T01:12:50.339Z,3.40
2019-03-06T01:29:14.835Z,2.90
2019-03-06T01:31:44.342Z,2.80
2019-03-06T01:34:38.767Z,2.80
2019-03-06T01:37:33.283Z,2.70
2019-03-06T01:40:20.073Z,2.60
2019-03-06T01:42:56.868Z,2.60
2019-03-06T01:45:26.356Z,2.60
2019-03-06T01:47:55.703Z,2.60
2019-03-06T01:50:25.066Z,2.60
2019-03-06T01:52:54.462Z,2.60
2019-03-06T01:55:23.774Z,2.50
2019-03-06T01:57:53.185Z,2.50
2019-03-06T02:00:22.796Z,2.50
2019-03-06T02:09:28.284Z,2.40
2019-03-06T02:11:57.950Z,2.40
2019-03-06T02:14:27.350Z,2.40
2019-03-06T02:16:56.791Z,2.40
2019-03-06T02:19:26.104Z,2.50
2019-03-06T02:21:55.392Z,2.50
2019-03-06T02:24:24.714Z,2.50
2019-03-06T02:26:54.106Z,2.50
2019-03-06T02:29:23.413Z,2.50
2019-03-06T02:31:52.804Z,2.60
2019-03-06T02:34:22.115Z,2.50
2019-03-06T02:36:51.511Z,2.60
2019-03-06T02:39:20.844Z,2.60
2019-03-06T02:41:50.298Z,2.60
2019-03-06T02:44:19.608Z,2.70
2019-03-06T02:46:49.586Z,2.70
2019-03-06T02:49:19.113Z,2.70
2019-03-06T02:51:48.555Z,2.70
2019-03-06T02:54:17.889Z,2.80
2019-03-06T02:56:47.219Z,2.80
2019-03-06T02:59:47.670Z,2.80
2019-03-06T03:02:34.992Z,2.90
2019-03-06T03:05:18.008Z,2.90
2019-03-06T03:07:47.380Z,2.90
2019-03-06T03:10:16.891Z,3.00
2019-03-06T03:12:46.217Z,3.00
2019-03-06T03:15:17.419Z,3.00
2019-03-06T03:17:46.810Z,3.10
2019-03-06T03:20:16.735Z,3.10
2019-03-06T03:22:46.111Z,3.10
2019-03-06T03:25:15.540Z,3.20
2019-03-06T03:27:45.062Z,3.10
2019-03-06T03:30:16.221Z,3.10
2019-03-06T03:32:45.705Z,3.20
2019-03-06T03:35:15.073Z,3.20
2019-03-06T03:37:44.500Z,3.20
2019-03-06T03:40:14.625Z,3.20
2019-03-06T03:42:43.933Z,3.20
2019-03-06T03:45:13.388Z,3.20
2019-03-06T03:47:42.723Z,3.20
2019-03-06T03:50:12.103Z,3.20
2019-03-06T03:52:41.773Z,3.10
2019-03-06T03:55:11.488Z,3.10
2019-03-06T03:57:40.773Z,3.10
2019-03-06T04:00:12.430Z,3.00
2019-03-06T04:02:41.702Z,3.00
2019-03-06T04:05:11.511Z,3.00
2019-03-06T04:07:40.868Z,3.00
2019-03-06T04:10:10.610Z,3.00
2019-03-06T04:12:39.939Z,3.00
2019-03-06T04:15:10.307Z,3.00
2019-03-06T04:17:39.787Z,3.00
2019-03-06T04:20:10.761Z,3.00
2019-03-06T04:22:40.153Z,3.00
2019-03-06T04:25:09.841Z,3.00
2019-03-06T04:27:39.140Z,3.00
2019-03-06T04:30:10.693Z,2.90
2019-03-06T04:32:40.049Z,2.90
2019-03-06T04:35:09.471Z,2.90
2019-03-06T04:37:38.791Z,2.80
2019-03-06T04:40:08.443Z,2.80
2019-03-06T04:42:39.142Z,2.80
2019-03-06T04:45:09.926Z,2.80
2019-03-06T04:47:39.250Z,2.80
2019-03-06T04:50:09.330Z,2.80
2019-03-06T04:52:38.710Z,2.90
2019-03-06T04:55:08.442Z,2.90
2019-03-06T04:57:37.771Z,2.90
2019-03-06T05:00:08.036Z,2.80
2019-03-06T05:02:39.216Z,2.80
2019-03-06T05:05:08.490Z,2.90
2019-03-06T05:07:37.824Z,2.80
2019-03-06T05:10:09.061Z,2.80
2019-03-06T05:12:38.406Z,2.80
2019-03-06T05:15:08.831Z,2.80
2019-03-06T05:17:59.367Z,2.80
2019-03-06T05:20:28.810Z,2.80
2019-03-06T05:22:58.168Z,2.80
2019-03-06T05:25:27.513Z,2.90
2019-03-06T05:27:56.919Z,2.90
2019-03-06T05:30:28.586Z,3.00
2019-03-06T05:32:59.006Z,3.00
2019-03-06T05:36:05.113Z,3.00
2019-03-06T05:38:42.209Z,3.10
2019-03-06T05:41:11.521Z,3.10
2019-03-06T05:43:40.961Z,3.10
2019-03-06T05:46:10.396Z,3.20
2019-03-06T05:48:39.910Z,3.20
2019-03-06T05:51:10.617Z,3.30
2019-03-06T05:53:40.328Z,3.40
2019-03-06T05:56:11.026Z,3.40
2019-03-06T05:58:40.624Z,3.40
2019-03-06T06:01:10.336Z,3.50
2019-03-06T06:03:39.958Z,3.50
2019-03-06T06:06:09.412Z,3.50
2019-03-06T06:08:40.373Z,3.50
2019-03-06T06:11:09.911Z,3.50
2019-03-06T06:13:39.664Z,3.60
2019-03-06T06:16:09.271Z,3.70
2019-03-06T06:18:38.759Z,3.60
2019-03-06T06:21:30.626Z,3.70
2019-03-06T06:24:03.705Z,3.80
2019-03-06T06:26:33.220Z,3.80
2019-03-06T06:29:02.782Z,3.80
2019-03-06T06:31:33.079Z,3.80
2019-03-06T06:34:03.294Z,3.80
2019-03-06T06:36:32.983Z,3.80
2019-03-06T06:39:02.453Z,3.80
2019-03-06T06:41:31.844Z,3.80
2019-03-06T06:44:01.247Z,3.80
2019-03-06T06:46:30.887Z,3.90
2019-03-06T06:49:00.623Z,3.90
2019-03-06T06:51:51.846Z,4.00
2019-03-06T06:54:27.190Z,4.00
2019-03-06T06:57:36.894Z,4.00
2019-03-06T07:00:48.458Z,4.10
2019-03-06T07:04:45.123Z,4.10
2019-03-06T07:07:31.888Z,4.30
2019-03-06T07:10:18.996Z,4.30
2019-03-06T07:13:19.740Z,4.30
2019-03-06T07:16:08.421Z,4.30
2019-03-06T07:18:56.830Z,4.40
2019-03-06T07:21:56.591Z,4.40
2019-03-06T07:24:44.459Z,4.60
2019-03-06T07:27:42.542Z,4.50
2019-03-06T07:30:29.947Z,4.60
2019-03-06T07:33:23.052Z,4.60
2019-03-06T07:36:19.852Z,4.70
2019-03-06T07:38:53.638Z,4.70
2019-03-06T07:41:41.044Z,4.70
2019-03-06T07:44:35.649Z,4.90
2019-03-06T07:47:31.727Z,5.00
2019-03-06T07:50:19.085Z,5.00
2019-03-06T07:53:50.508Z,5.10
2019-03-06T07:56:34.038Z,5.30
2019-03-06T07:59:05.671Z,5.40
2019-03-06T08:01:38.578Z,5.40
2019-03-06T08:04:13.237Z,5.50
2019-03-06T08:06:46.815Z,5.50
2019-03-06T08:09:18.859Z,5.60
2019-03-06T08:12:10.571Z,5.70
2019-03-06T08:14:59.352Z,5.80
2019-03-06T08:17:46.313Z,6.00
2019-03-06T08:20:44.504Z,6.20
2019-03-06T08:23:32.242Z,6.30
2019-03-06T08:26:03.358Z,6.60
2019-03-06T08:28:36.009Z,6.80
2019-03-06T08:31:40.896Z,6.90
2019-03-06T08:34:16.282Z,7.00
2019-03-06T08:36:46.694Z,7.10
2019-03-06T08:39:24.055Z,7.20
2019-03-06T08:41:54.361Z,7.30
2019-03-06T08:44:24.455Z,7.50
2019-03-06T08:47:28.475Z,7.70
2019-03-06T08:50:29.750Z,7.80
2019-03-06T08:53:21.429Z,8.00
2019-03-06T08:56:10.383Z,8.10
2019-03-06T08:59:04.881Z,8.00
2019-03-06T09:02:00.729Z,8.10
2019-03-06T09:04:46.893Z,8.10
2019-03-06T09:07:38.948Z,8.40
2019-03-06T09:10:36.295Z,8.50
2019-03-06T09:13:27.814Z,8.50
2019-03-06T09:16:16.803Z,8.40
2019-03-06T09:19:23.658Z,8.20
2019-03-06T09:21:58.511Z,8.20
2019-03-06T09:24:34.469Z,8.50
2019-03-06T09:27:10.814Z,8.50
2019-03-06T09:30:02.281Z,8.60
2019-03-06T09:32:59.731Z,8.60
2019-03-06T09:35:47.131Z,8.70
2019-03-06T09:38:34.569Z,8.90
2019-03-06T09:41:26.142Z,8.90
2019-03-06T09:44:20.776Z,9.10
2019-03-06T09:47:18.336Z,9.30
2019-03-06T09:50:10.624Z,9.40
2019-03-06T09:53:08.318Z,9.60
2019-03-06T09:55:46.153Z,9.50
2019-03-06T09:58:43.726Z,9.70
2019-03-06T10:01:28.252Z,9.80
2019-03-06T10:04:16.980Z,9.70
2019-03-06T10:07:04.468Z,9.70
2019-03-06T10:09:47.778Z,9.90
2019-03-06T10:12:24.357Z,9.90
2019-03-06T10:15:01.536Z,10.20
2019-03-06T10:17:35.613Z,10.00
2019-03-06T10:20:09.055Z,10.00
2019-03-06T10:22:38.622Z,10.20
2019-03-06T10:25:08.359Z,10.10
2019-03-06T10:27:37.814Z,10.40
2019-03-06T10:30:11.375Z,10.40
2019-03-06T10:32:40.750Z,10.60
2019-03-06T10:35:12.285Z,11.20
2019-03-06T10:37:41.819Z,11.30
2019-03-06T10:40:14.681Z,11.80
2019-03-06T10:42:44.194Z,11.60
2019-03-06T10:45:14.845Z,11.30
2019-03-06T10:47:44.681Z,12.00
2019-03-06T10:50:25.887Z,12.60
2019-03-06T10:52:47.278Z,12.60
2019-03-06T10:55:17.349Z,12.60
2019-03-06T10:57:47.057Z,12.70
2019-03-06T11:00:20.980Z,12.50
2019-03-06T11:02:51.023Z,12.10
2019-03-06T11:05:31.928Z,12.50
2019-03-06T11:08:02.213Z,12.50
2019-03-06T11:10:33.817Z,12.60
2019-03-06T11:13:08.636Z,12.60
2019-03-06T11:15:38.691Z,12.50
2019-03-06T11:18:08.818Z,12.10
2019-03-06T11:20:40.681Z,11.90
2019-03-06T11:23:12.110Z,11.90
2019-03-06T11:25:42.888Z,11.80
2019-03-06T11:28:12.814Z,11.90
2019-03-06T11:30:46.088Z,12.10
2019-03-06T11:33:16.167Z,11.80
2019-03-06T11:35:46.295Z,12.00
2019-03-06T11:38:16.229Z,12.50
2019-03-06T11:40:45.873Z,12.80
2019-03-06T11:43:18.763Z,13.00
2019-03-06T11:45:48.868Z,13.20
2019-03-06T11:48:19.380Z,13.00
2019-03-06T11:50:51.070Z,12.90
2019-03-06T11:53:21.593Z,13.20
2019-03-06T11:55:51.432Z,13.00
2019-03-06T11:58:25.851Z,13.00
2019-03-06T12:00:56.441Z,13.00
2019-03-06T12:03:27.879Z,12.90
2019-03-06T12:05:58.869Z,13.40
2019-03-06T12:08:32.393Z,13.20
2019-03-06T12:11:03.638Z,13.20
2019-03-06T12:13:34.299Z,13.10
2019-03-06T12:16:04.629Z,13.00
2019-03-06T12:18:34.949Z,12.80
2019-03-06T12:21:05.546Z,12.60
2019-03-06T12:23:35.279Z,12.40
2019-03-06T12:26:05.656Z,12.40
2019-03-06T12:28:35.334Z,12.40
2019-03-06T12:31:07.525Z,12.20
2019-03-06T12:33:37.228Z,12.20
2019-03-06T12:36:07.025Z,12.20
2019-03-06T12:38:36.914Z,12.20
2019-03-06T12:41:06.853Z,12.30
2019-03-06T12:43:36.844Z,12.40
2019-03-06T12:46:23.328Z,12.30
2019-03-06T12:48:55.080Z,12.20
2019-03-06T12:51:26.475Z,12.30
2019-03-06T12:53:56.222Z,12.30
2019-03-06T12:56:27.108Z,12.20
2019-03-06T12:58:56.870Z,12.10
2019-03-06T13:01:26.519Z,12.20
2019-03-06T13:03:58.507Z,12.40
2019-03-06T13:06:28.053Z,12.40
2019-03-06T13:08:59.282Z,12.40
2019-03-06T13:11:29.416Z,12.30
2019-03-06T13:14:06.746Z,12.30
2019-03-06T13:16:36.627Z,12.30
2019-03-06T13:19:06.457Z,12.10
2019-03-06T13:21:36.297Z,12.20
2019-03-06T13:24:06.750Z,12.30
2019-03-06T13:26:36.457Z,12.30
2019-03-06T13:29:06.079Z,12.20
2019-03-06T13:31:36.199Z,12.20
2019-03-06T13:34:17.584Z,12.10
2019-03-06T13:36:47.470Z,12.10
2019-03-06T13:39:17.503Z,12.10
2019-03-06T13:41:47.123Z,12.10
2019-03-06T13:44:18.968Z,12.20
2019-03-06T13:46:48.452Z,12.10
2019-03-06T13:49:18.253Z,12.00
2019-03-06T13:51:48.105Z,12.10
2019-03-06T13:54:18.161Z,12.10
2019-03-06T13:56:48.310Z,12.20
2019-03-06T13:59:17.785Z,12.10
2019-03-06T14:01:58.098Z,12.10
2019-03-06T14:04:30.981Z,12.20
2019-03-06T14:07:00.759Z,12.10
2019-03-06T14:09:34.033Z,12.00
2019-03-06T14:12:03.914Z,12.00
2019-03-06T14:14:33.700Z,12.00
2019-03-06T14:17:07.438Z,11.90
2019-03-06T14:19:38.625Z,11.80
2019-03-06T14:22:08.231Z,11.90
2019-03-06T14:24:38.031Z,12.00
2019-03-06T14:27:09.701Z,11.90
2019-03-06T14:29:39.430Z,12.00
2019-03-06T14:32:14.637Z,12.10
2019-03-06T14:34:43.223Z,11.90
2019-03-06T14:37:12.839Z,12.00
2019-03-06T14:39:42.802Z,12.10
2019-03-06T14:42:13.812Z,12.00
2019-03-06T14:44:43.597Z,12.10
2019-03-06T14:47:15.251Z,12.10
2019-03-06T14:49:45.060Z,12.10
2019-03-06T14:52:17.648Z,12.10
2019-03-06T14:54:49.535Z,12.10
2019-03-06T14:57:19.658Z,12.20
2019-03-06T14:59:49.778Z,12.20
2019-03-06T15:02:20.684Z,12.10
2019-03-06T15:04:50.534Z,12.10
2019-03-06T15:07:20.679Z,12.10
2019-03-06T15:09:50.778Z,12.10
2019-03-06T15:12:21.661Z,12.10
2019-03-06T15:14:52.138Z,12.10
2019-03-06T15:17:24.765Z,12.10
2019-03-06T15:19:58.416Z,12.10
2019-03-06T15:22:28.523Z,12.10
2019-03-06T15:24:58.666Z,12.20
2019-03-06T15:27:28.396Z,12.10
2019-03-06T15:29:58.387Z,12.20
2019-03-06T15:32:28.667Z,12.10
2019-03-06T15:34:58.041Z,12.10
2019-03-06T15:37:27.549Z,12.20
2019-03-06T15:39:57.661Z,12.20
2019-03-06T15:42:27.310Z,12.20
2019-03-06T15:44:56.622Z,12.20
2019-03-06T15:47:33.377Z,12.10
2019-03-06T15:49:58.860Z,12.20
2019-03-06T15:52:28.874Z,12.20
2019-03-06T15:54:58.610Z,12.20
2019-03-06T15:57:28.345Z,12.20
2019-03-06T15:59:57.845Z,12.20
2019-03-06T16:02:29.379Z,12.20
2019-03-06T16:04:58.903Z,12.20
2019-03-06T16:07:28.499Z,12.20
2019-03-06T16:09:58.246Z,12.20
2019-03-06T16:12:27.836Z,12.20
2019-03-06T16:15:02.224Z,12.20
2019-03-06T16:17:31.745Z,12.20
2019-03-06T16:20:05.613Z,12.20
2019-03-06T16:22:35.769Z,12.20
2019-03-06T16:25:07.111Z,12.10
2019-03-06T16:27:40.310Z,12.10
2019-03-06T16:30:12.751Z,12.10
2019-03-06T16:32:43.567Z,12.10
2019-03-06T16:35:16.322Z,12.10
2019-03-06T16:37:46.231Z,12.10
2019-03-06T16:40:22.913Z,12.10
2019-03-06T16:42:53.555Z,12.10
2019-03-06T16:45:25.529Z,12.10
2019-03-06T16:47:56.000Z,12.10
2019-03-06T16:50:26.248Z,12.10
2019-03-06T16:52:57.369Z,12.10
2019-03-06T16:55:29.997Z,12.10
2019-03-06T16:58:02.766Z,12.10
2019-03-06T17:00:33.529Z,12.10
2019-03-06T17:03:04.064Z,12.00
2019-03-06T17:05:34.732Z,12.00
2019-03-06T17:08:05.315Z,12.10
2019-03-06T17:10:35.232Z,12.00
2019-03-06T17:13:05.037Z,12.10
2019-03-06T17:15:34.610Z,12.10
2019-03-06T17:18:04.586Z,12.10
2019-03-06T17:20:34.311Z,12.10
2019-03-06T17:23:04.930Z,12.00
2019-03-06T17:25:34.698Z,12.00
2019-03-06T17:28:04.503Z,11.90
2019-03-06T17:30:33.896Z,11.90
2019-03-06T17:33:06.751Z,11.90
2019-03-06T17:35:36.810Z,11.90
2019-03-06T17:38:07.973Z,11.90
2019-03-06T17:40:37.418Z,11.90
2019-03-06T17:43:08.944Z,11.90
2019-03-06T17:45:38.765Z,11.90
2019-03-06T17:48:09.765Z,11.80
2019-03-06T17:50:40.292Z,11.90
2019-03-06T17:53:09.862Z,11.90
2019-03-06T17:55:39.383Z,11.90
2019-03-06T17:58:08.731Z,11.90
2019-03-06T18:00:57.878Z,11.80
2019-03-06T18:03:42.403Z,11.90
2019-03-06T18:06:12.049Z,11.90
2019-03-06T18:08:41.427Z,11.80
2019-03-06T18:11:10.820Z,11.80
2019-03-06T18:13:40.236Z,11.70
2019-03-06T18:16:09.708Z,11.60
2019-03-06T18:18:38.994Z,11.50
2019-03-06T18:21:08.304Z,11.40
2019-03-06T18:23:37.697Z,11.30
2019-03-06T18:26:07.018Z,11.20
2019-03-06T18:28:36.415Z,11.10
2019-03-06T18:31:05.794Z,11.10
2019-03-06T18:33:36.435Z,11.10
2019-03-06T18:36:05.868Z,11.20
2019-03-06T18:38:35.236Z,11.10
2019-03-06T18:41:04.751Z,11.00
2019-03-06T18:43:34.156Z,11.00
2019-03-06T18:46:03.542Z,11.00
2019-03-06T18:48:33.072Z,10.90
2019-03-06T18:51:02.654Z,10.90
2019-03-06T18:53:32.058Z,10.80
2019-03-06T18:56:01.419Z,10.70
2019-03-06T18:58:30.940Z,10.60
2019-03-06T19:01:01.719Z,10.50
2019-03-06T19:03:31.122Z,10.40
2019-03-06T19:06:00.907Z,10.40
2019-03-06T19:08:31.565Z,10.30
2019-03-06T19:11:01.188Z,10.10
2019-03-06T19:13:30.597Z,10.00
2019-03-06T19:16:00.096Z,9.80
2019-03-06T19:18:29.563Z,9.80
2019-03-06T19:21:02.347Z,9.60
2019-03-06T19:23:31.691Z,9.50
2019-03-06T19:26:01.151Z,9.50
2019-03-06T19:28:30.655Z,9.40
2019-03-06T19:31:00.082Z,9.30
2019-03-06T19:33:29.827Z,9.20
2019-03-06T19:35:59.266Z,9.20
2019-03-06T19:38:28.728Z,9.20
2019-03-06T19:40:58.165Z,9.20
2019-03-06T19:43:27.594Z,9.20
2019-03-06T19:45:57.003Z,9.20
2019-03-06T19:48:27.380Z,9.20
2019-03-06T19:50:56.763Z,9.20
2019-03-06T19:53:26.189Z,9.20
2019-03-06T19:55:55.689Z,9.20
2019-03-06T19:58:26.236Z,9.20
2019-03-06T20:00:55.891Z,9.30
2019-03-06T20:03:25.555Z,9.30
2019-03-06T20:05:55.023Z,9.40
2019-03-06T20:08:24.414Z,9.40
2019-03-06T20:10:53.807Z,9.40
2019-03-06T20:13:23.177Z,9.40
2019-03-06T20:15:52.543Z,9.40
2019-03-06T20:18:22.241Z,9.40
2019-03-06T20:20:52.303Z,9.40
2019-03-06T20:23:21.848Z,9.40
2019-03-06T20:25:52.714Z,9.40
2019-03-06T20:28:23.295Z,9.40
2019-03-06T20:30:52.637Z,9.40
2019-03-06T20:33:22.230Z,9.40
2019-03-06T20:35:51.648Z,9.40
2019-03-06T20:38:21.085Z,9.40
2019-03-06T20:40:50.884Z,9.40
2019-03-06T20:43:20.388Z,9.50
2019-03-06T20:45:49.840Z,9.50
2019-03-06T20:48:19.366Z,9.60
2019-03-06T20:50:48.747Z,9.60
2019-03-06T20:53:18.171Z,9.60
2019-03-06T20:55:47.555Z,9.60
2019-03-06T20:58:16.967Z,9.60
2019-03-06T21:00:48.919Z,9.70
2019-03-06T21:03:18.273Z,9.70
2019-03-06T21:05:47.948Z,9.70
2019-03-06T21:08:17.607Z,9.80
2019-03-06T21:10:47.228Z,9.70
2019-03-06T21:13:16.715Z,9.70
2019-03-06T21:15:46.273Z,9.70
2019-03-06T21:18:15.820Z,9.70
2019-03-06T21:20:45.442Z,9.70
2019-03-06T21:23:16.538Z,9.70
2019-03-06T21:25:46.711Z,9.70
2019-03-06T21:28:16.184Z,9.70
2019-03-06T21:30:45.993Z,9.70
2019-03-06T21:33:15.459Z,9.70
2019-03-06T21:35:44.920Z,9.80
2019-03-06T21:38:14.758Z,9.70
2019-03-06T21:40:44.054Z,9.70
2019-03-06T21:43:14.954Z,9.70
2019-03-06T21:45:44.645Z,9.70
2019-03-06T21:48:14.111Z,9.80
2019-03-06T21:50:43.560Z,9.70
2019-03-06T21:53:13.270Z,9.80
2019-03-06T21:55:42.633Z,9.80
2019-03-06T21:58:12.236Z,9.80
2019-03-06T22:00:41.625Z,9.80
2019-03-06T22:03:12.353Z,9.80
2019-03-06T22:05:41.670Z,9.80
2019-03-06T22:08:11.358Z,9.80
2019-03-06T22:10:40.742Z,9.90
2019-03-06T22:13:10.297Z,9.90
2019-03-06T22:15:39.784Z,9.90
2019-03-06T22:18:09.226Z,9.90
2019-03-06T22:20:38.594Z,9.90
2019-03-06T22:23:08.025Z,9.90
2019-03-06T22:25:37.589Z,9.90
2019-03-06T22:28:08.502Z,9.90
2019-03-06T22:30:37.897Z,9.90
2019-03-06T22:33:07.461Z,9.90
2019-03-06T22:35:37.939Z,9.90
2019-03-06T22:38:07.581Z,9.90
2019-03-06T22:40:37.072Z,9.90
2019-03-06T22:43:06.478Z,9.90
2019-03-06T22:45:35.816Z,9.90
2019-03-06T22:48:05.378Z,9.90
2019-03-06T22:50:35.015Z,9.90
2019-03-06T22:53:04.301Z,9.90
2019-03-06T22:55:33.635Z,9.90
2019-03-06T22:58:02.986Z,9.90
2019-03-06T23:00:52.915Z,9.90
2019-03-06T23:03:22.854Z,9.90
2019-03-06T23:05:52.401Z,9.90
2019-03-06T23:08:21.784Z,9.90
2019-03-06T23:10:51.575Z,9.90
2019-03-06T23:13:20.928Z,9.90
2019-03-06T23:15:50.292Z,9.90
2019-03-06T23:18:19.725Z,9.80
2019-03-06T23:20:49.144Z,9.90
2019-03-06T23:23:18.561Z,9.80
2019-03-06T23:25:47.855Z,9.90
2019-03-06T23:28:17.418Z,9.90
2019-03-06T23:30:46.822Z,9.90
2019-03-06T23:33:17.658Z,9.90
2019-03-06T23:35:46.966Z,9.90
2019-03-06T23:38:16.452Z,9.90
2019-03-06T23:40:45.847Z,9.90
2019-03-06T23:43:15.333Z,9.90
2019-03-06T23:45:44.711Z,9.90
2019-03-06T23:48:14.027Z,9.90
2019-03-06T23:50:43.332Z,9.90
2019-03-06T23:53:13.962Z,9.90
2019-03-06T23:55:43.507Z,9.90
2019-03-06T23:58:12.910Z,9.90
